Mesa, AZ

07:36 AM MST on Δεκέμβριος 10, 2016 (GMT -0700)
Phoenix-Mesa Gateway Airport | | Change Station

Elev 1381 ft 33.31 °N, 111.66 °W | Updated 49 minutes ago

Αίθριος
Αίθριος
43 ° F
Feels Like 40 ° F
N
5
Ανεμος Μεταβλητός Ανεμος from Ανατολικός

Σήμερα
High -- | Low -- ° F
--% Chance of Precip.
Yesterday
High -- | Low -- ° F
Precip. -- in
Ατμοσφαιρική Πίεση 30.14 in
Ορατότητα 20.0 Μίλια
Σύννεφα Αίθριος
Δείκτης Ψυχρότητας 40 ° F
Σημείο Δρόσου 34 ° F
Υγρασία 70%
Rainfall 0.00 in
Snow Depth Not available.
7:19 AM 5:19 PM
Αμφίκυρτος, 84% visible
METAR KIWA 101347Z 10004KT 20SM SKC 06/01 A3014
Ατμοσφαιρική Πίεση 30.14 in
Ορατότητα 20.0 Μίλια
Σύννεφα Αίθριος
Δείκτης Ψυχρότητας 40 ° F
Σημείο Δρόσου 34 ° F
Υγρασία 70%
Rainfall 0.00 in
Snow Depth Not available.
7:19 AM 5:19 PM
Αμφίκυρτος, 84% visible
METAR KIWA 101347Z 10004KT 20SM SKC 06/01 A3014

10-Day Weather Forecast

Almanac

Αστρονομία

Dec. 10, 2016 Rise Set
Actual Time
Civil Twilight
Nautical Twilight
Astronomical Twilight
Moon
Length Of Visible Light
Διάρκεια ημέρας
Tomorrow will be .
, % of the Moon is Illuminated

Today's Extremes

State Highs State Lows

Community

WunderPhotos

Upload Photos

1,956,549 photos uploaded!

WunderBlog® & News

Nearby

Air Quality

  Air Quality AQ Index Pollutant
Not available.

Snow Depth

Station Depth Elevation

Earthquake Activity

City Distance Mag. Time & Date
Minimum magnitude displayed is 2.5.

Coastal Water Temperatures

Τοποθεσία Θερμοκρασία

Stations

Nearby Weather Stations

Station Location Temp Δείκτης Ψυχρότητας Σημείο Δρόσου Υγρασία Ανεμος Precip. Elev Ενημερώθηκε Type
                   

Watches & Warnings

There are currently no watches in effect.